sensor_id;sensor_type;location;lat;lon;timestamp;P1;durP1;ratioP1;P2;durP2;ratioP2
69989;SDS011;57331;52.054;5.294;2023-05-10T00:00:55;69.22;;;23.95;;
69989;SDS011;57331;52.054;5.294;2023-05-10T00:03:22;65.80;;;23.35;;
69989;SDS011;57331;52.054;5.294;2023-05-10T00:05:49;67.57;;;22.50;;
69989;SDS011;57331;52.054;5.294;2023-05-10T00:08:17;66.60;;;23.15;;
69989;SDS011;57331;52.054;5.294;2023-05-10T00:10:44;70.60;;;24.35;;
69989;SDS011;57331;52.054;5.294;2023-05-10T00:13:11;72.93;;;24.77;;
69989;SDS011;57331;52.054;5.294;2023-05-10T00:15:39;66.40;;;23.63;;
69989;SDS011;57331;52.054;5.294;2023-05-10T00:18:06;72.47;;;24.37;;
69989;SDS011;57331;52.054;5.294;2023-05-10T00:20:33;65.60;;;23.13;;
69989;SDS011;57331;52.054;5.294;2023-05-10T00:23:00;68.07;;;25.05;;
69989;SDS011;57331;52.054;5.294;2023-05-10T00:25:27;60.42;;;20.10;;
69989;SDS011;57331;52.054;5.294;2023-05-10T00:27:55;69.00;;;22.85;;
69989;SDS011;57331;52.054;5.294;2023-05-10T00:30:23;72.17;;;24.67;;
69989;SDS011;57331;52.054;5.294;2023-05-10T00:32:50;73.13;;;24.23;;
69989;SDS011;57331;52.054;5.294;2023-05-10T00:35:18;84.47;;;25.48;;
69989;SDS011;57331;52.054;5.294;2023-05-10T00:37:46;70.65;;;21.65;;
69989;SDS011;57331;52.054;5.294;2023-05-10T00:40:14;65.03;;;22.77;;
69989;SDS011;57331;52.054;5.294;2023-05-10T00:42:45;73.77;;;23.10;;
69989;SDS011;57331;52.054;5.294;2023-05-10T00:45:12;72.70;;;21.88;;
69989;SDS011;57331;52.054;5.294;2023-05-10T00:47:39;65.32;;;22.88;;
69989;SDS011;57331;52.054;5.294;2023-05-10T00:50:07;67.20;;;20.58;;
69989;SDS011;57331;52.054;5.294;2023-05-10T00:52:35;59.80;;;21.23;;
69989;SDS011;57331;52.054;5.294;2023-05-10T00:55:02;77.43;;;24.07;;
69989;SDS011;57331;52.054;5.294;2023-05-10T00:57:31;76.32;;;20.88;;
69989;SDS011;57331;52.054;5.294;2023-05-10T00:59:58;84.22;;;23.50;;
69989;SDS011;57331;52.054;5.294;2023-05-10T01:02:25;79.97;;;23.08;;
69989;SDS011;57331;52.054;5.294;2023-05-10T01:04:55;67.60;;;21.70;;
69989;SDS011;57331;52.054;5.294;2023-05-10T01:07:22;77.97;;;23.53;;
69989;SDS011;57331;52.054;5.294;2023-05-10T01:09:50;77.25;;;22.58;;
69989;SDS011;57331;52.054;5.294;2023-05-10T01:12:16;80.75;;;22.98;;
69989;SDS011;57331;52.054;5.294;2023-05-10T01:14:44;60.75;;;19.73;;
69989;SDS011;57331;52.054;5.294;2023-05-10T01:17:11;80.30;;;22.13;;
69989;SDS011;57331;52.054;5.294;2023-05-10T01:19:40;71.43;;;20.87;;
69989;SDS011;57331;52.054;5.294;2023-05-10T01:30:38;80.53;;;22.27;;
69989;SDS011;57331;52.054;5.294;2023-05-10T01:38:51;84.53;;;24.05;;
69989;SDS011;57331;52.054;5.294;2023-05-10T01:44:10;78.78;;;23.95;;
69989;SDS011;57331;52.054;5.294;2023-05-10T01:46:42;84.97;;;24.40;;
69989;SDS011;57331;52.054;5.294;2023-05-10T01:49:30;80.32;;;23.63;;
69989;SDS011;57331;52.054;5.294;2023-05-10T01:52:14;77.18;;;23.40;;
69989;SDS011;57331;52.054;5.294;2023-05-10T01:55:20;68.75;;;22.45;;
69989;SDS011;57331;52.054;5.294;2023-05-10T01:57:42;72.30;;;21.35;;
69989;SDS011;57331;52.054;5.294;2023-05-10T02:00:11;68.73;;;22.30;;
69989;SDS011;57331;52.054;5.294;2023-05-10T02:02:40;80.88;;;24.55;;
69989;SDS011;57331;52.054;5.294;2023-05-10T02:05:11;82.68;;;24.77;;
69989;SDS011;57331;52.054;5.294;2023-05-10T02:07:40;78.32;;;23.55;;
69989;SDS011;57331;52.054;5.294;2023-05-10T02:10:09;88.75;;;24.27;;
69989;SDS011;57331;52.054;5.294;2023-05-10T02:12:39;90.27;;;25.30;;
69989;SDS011;57331;52.054;5.294;2023-05-10T02:15:09;73.72;;;22.27;;
69989;SDS011;57331;52.054;5.294;2023-05-10T02:17:37;95.53;;;26.27;;
69989;SDS011;57331;52.054;5.294;2023-05-10T02:20:06;89.22;;;25.50;;
69989;SDS011;57331;52.054;5.294;2023-05-10T02:22:34;92.65;;;26.35;;
69989;SDS011;57331;52.054;5.294;2023-05-10T02:25:02;93.83;;;26.50;;
69989;SDS011;57331;52.054;5.294;2023-05-10T02:27:30;103.07;;;28.55;;
69989;SDS011;57331;52.054;5.294;2023-05-10T02:29:57;109.90;;;28.10;;
69989;SDS011;57331;52.054;5.294;2023-05-10T02:32:26;123.93;;;30.52;;
69989;SDS011;57331;52.054;5.294;2023-05-10T02:34:55;112.20;;;29.88;;
69989;SDS011;57331;52.054;5.294;2023-05-10T02:37:23;119.13;;;30.10;;
69989;SDS011;57331;52.054;5.294;2023-05-10T02:39:52;112.45;;;30.20;;
69989;SDS011;57331;52.054;5.294;2023-05-10T02:42:26;117.70;;;30.38;;
69989;SDS011;57331;52.054;5.294;2023-05-10T02:44:59;118.47;;;29.58;;
69989;SDS011;57331;52.054;5.294;2023-05-10T02:47:27;113.90;;;31.10;;
69989;SDS011;57331;52.054;5.294;2023-05-10T02:49:55;129.37;;;29.93;;
69989;SDS011;57331;52.054;5.294;2023-05-10T02:52:28;99.78;;;26.52;;
69989;SDS011;57331;52.054;5.294;2023-05-10T02:55:01;116.30;;;28.38;;
69989;SDS011;57331;52.054;5.294;2023-05-10T02:57:34;125.63;;;31.25;;
69989;SDS011;57331;52.054;5.294;2023-05-10T03:00:05;111.72;;;29.85;;
69989;SDS011;57331;52.054;5.294;2023-05-10T03:02:33;116.10;;;29.80;;
69989;SDS011;57331;52.054;5.294;2023-05-10T03:05:00;110.57;;;29.65;;
69989;SDS011;57331;52.054;5.294;2023-05-10T03:07:27;105.25;;;28.45;;
69989;SDS011;57331;52.054;5.294;2023-05-10T03:09:54;99.43;;;29.05;;
69989;SDS011;57331;52.054;5.294;2023-05-10T03:17:25;108.25;;;29.85;;
69989;SDS011;57331;52.054;5.294;2023-05-10T03:19:58;98.90;;;28.70;;
69989;SDS011;57331;52.054;5.294;2023-05-10T03:22:31;90.63;;;27.85;;
69989;SDS011;57331;52.054;5.294;2023-05-10T03:25:07;84.25;;;27.02;;
69989;SDS011;57331;52.054;5.294;2023-05-10T03:27:41;88.87;;;26.53;;
69989;SDS011;57331;52.054;5.294;2023-05-10T03:30:10;89.30;;;26.58;;
69989;SDS011;57331;52.054;5.294;2023-05-10T03:32:38;77.25;;;25.73;;
69989;SDS011;57331;52.054;5.294;2023-05-10T03:35:09;91.13;;;25.20;;
69989;SDS011;57331;52.054;5.294;2023-05-10T03:37:38;86.18;;;25.17;;
69989;SDS011;57331;52.054;5.294;2023-05-10T03:40:05;86.83;;;25.93;;
69989;SDS011;57331;52.054;5.294;2023-05-10T03:42:35;94.65;;;23.77;;
69989;SDS011;57331;52.054;5.294;2023-05-10T03:45:02;79.05;;;22.90;;
69989;SDS011;57331;52.054;5.294;2023-05-10T03:47:29;82.80;;;24.25;;
69989;SDS011;57331;52.054;5.294;2023-05-10T03:49:57;85.05;;;23.25;;
69989;SDS011;57331;52.054;5.294;2023-05-10T03:52:24;87.03;;;24.10;;
69989;SDS011;57331;52.054;5.294;2023-05-10T03:54:51;79.65;;;24.30;;
69989;SDS011;57331;52.054;5.294;2023-05-10T03:57:18;84.25;;;24.70;;
69989;SDS011;57331;52.054;5.294;2023-05-10T03:59:45;73.63;;;23.02;;
69989;SDS011;57331;52.054;5.294;2023-05-10T04:02:13;87.97;;;25.98;;
69989;SDS011;57331;52.054;5.294;2023-05-10T04:04:40;91.00;;;25.27;;
69989;SDS011;57331;52.054;5.294;2023-05-10T04:07:08;93.90;;;26.30;;
69989;SDS011;57331;52.054;5.294;2023-05-10T04:09:36;82.85;;;24.88;;
69989;SDS011;57331;52.054;5.294;2023-05-10T04:12:03;89.15;;;25.17;;
69989;SDS011;57331;52.054;5.294;2023-05-10T04:14:30;92.63;;;25.55;;
69989;SDS011;57331;52.054;5.294;2023-05-10T04:16:58;101.67;;;27.23;;
69989;SDS011;57331;52.054;5.294;2023-05-10T04:19:28;96.18;;;25.48;;
69989;SDS011;57331;52.054;5.294;2023-05-10T04:21:56;102.95;;;27.23;;
69989;SDS011;57331;52.054;5.294;2023-05-10T04:24:24;111.10;;;26.08;;
69989;SDS011;57331;52.054;5.294;2023-05-10T04:26:51;105.72;;;25.95;;
69989;SDS011;57331;52.054;5.294;2023-05-10T04:29:21;105.17;;;27.43;;
69989;SDS011;57331;52.054;5.294;2023-05-10T04:31:48;100.18;;;25.70;;
69989;SDS011;57331;52.054;5.294;2023-05-10T04:34:15;109.90;;;29.25;;
69989;SDS011;57331;52.054;5.294;2023-05-10T04:36:43;112.30;;;28.75;;
69989;SDS011;57331;52.054;5.294;2023-05-10T04:39:10;109.85;;;28.02;;
69989;SDS011;57331;52.054;5.294;2023-05-10T04:41:37;123.00;;;30.77;;
69989;SDS011;57331;52.054;5.294;2023-05-10T04:44:05;96.15;;;25.27;;
69989;SDS011;57331;52.054;5.294;2023-05-10T04:46:32;110.72;;;29.63;;
69989;SDS011;57331;52.054;5.294;2023-05-10T04:48:59;99.75;;;25.00;;
69989;SDS011;57331;52.054;5.294;2023-05-10T04:51:26;113.82;;;27.67;;
69989;SDS011;57331;52.054;5.294;2023-05-10T04:53:53;126.80;;;33.67;;
69989;SDS011;57331;52.054;5.294;2023-05-10T04:56:31;110.05;;;28.80;;
69989;SDS011;57331;52.054;5.294;2023-05-10T04:58:59;120.82;;;32.35;;
69989;SDS011;57331;52.054;5.294;2023-05-10T05:01:27;126.45;;;31.67;;
69989;SDS011;57331;52.054;5.294;2023-05-10T05:03:54;123.68;;;33.83;;
69989;SDS011;57331;52.054;5.294;2023-05-10T05:06:22;119.33;;;29.20;;
69989;SDS011;57331;52.054;5.294;2023-05-10T05:08:51;101.60;;;28.55;;
69989;SDS011;57331;52.054;5.294;2023-05-10T05:11:18;114.32;;;32.58;;
69989;SDS011;57331;52.054;5.294;2023-05-10T05:13:45;108.43;;;31.95;;
69989;SDS011;57331;52.054;5.294;2023-05-10T05:16:13;119.93;;;33.75;;
69989;SDS011;57331;52.054;5.294;2023-05-10T05:18:40;115.10;;;31.13;;
69989;SDS011;57331;52.054;5.294;2023-05-10T05:21:14;106.63;;;29.98;;
69989;SDS011;57331;52.054;5.294;2023-05-10T05:23:44;106.78;;;32.17;;
69989;SDS011;57331;52.054;5.294;2023-05-10T05:26:12;100.53;;;30.40;;
69989;SDS011;57331;52.054;5.294;2023-05-10T05:28:39;98.82;;;30.02;;
69989;SDS011;57331;52.054;5.294;2023-05-10T05:31:06;118.23;;;33.67;;
69989;SDS011;57331;52.054;5.294;2023-05-10T05:33:34;89.63;;;30.63;;
69989;SDS011;57331;52.054;5.294;2023-05-10T05:36:02;105.38;;;31.70;;
69989;SDS011;57331;52.054;5.294;2023-05-10T05:38:30;96.80;;;29.50;;
69989;SDS011;57331;52.054;5.294;2023-05-10T05:40:57;94.95;;;27.50;;
69989;SDS011;57331;52.054;5.294;2023-05-10T05:43:25;93.20;;;30.87;;
69989;SDS011;57331;52.054;5.294;2023-05-10T05:45:52;75.18;;;26.17;;
69989;SDS011;57331;52.054;5.294;2023-05-10T05:48:20;79.57;;;27.90;;
69989;SDS011;57331;52.054;5.294;2023-05-10T05:50:47;84.47;;;28.40;;
69989;SDS011;57331;52.054;5.294;2023-05-10T05:53:14;89.05;;;28.55;;
69989;SDS011;57331;52.054;5.294;2023-05-10T05:56:00;78.40;;;25.50;;
69989;SDS011;57331;52.054;5.294;2023-05-10T05:58:27;73.10;;;24.70;;
69989;SDS011;57331;52.054;5.294;2023-05-10T06:00:54;59.75;;;21.15;;
69989;SDS011;57331;52.054;5.294;2023-05-10T06:03:21;63.28;;;22.52;;
69989;SDS011;57331;52.054;5.294;2023-05-10T06:05:49;68.65;;;23.70;;
69989;SDS011;57331;52.054;5.294;2023-05-10T06:08:16;73.37;;;26.23;;
69989;SDS011;57331;52.054;5.294;2023-05-10T06:10:43;70.53;;;25.67;;
69989;SDS011;57331;52.054;5.294;2023-05-10T06:13:11;65.97;;;25.00;;
69989;SDS011;57331;52.054;5.294;2023-05-10T06:15:38;73.55;;;26.27;;
69989;SDS011;57331;52.054;5.294;2023-05-10T06:18:06;78.13;;;27.33;;
69989;SDS011;57331;52.054;5.294;2023-05-10T06:20:33;72.60;;;25.23;;
69989;SDS011;57331;52.054;5.294;2023-05-10T06:23:00;63.67;;;22.08;;
69989;SDS011;57331;52.054;5.294;2023-05-10T06:25:28;70.60;;;26.23;;
69989;SDS011;57331;52.054;5.294;2023-05-10T06:27:55;68.45;;;24.70;;
69989;SDS011;57331;52.054;5.294;2023-05-10T06:30:24;67.05;;;24.80;;
69989;SDS011;57331;52.054;5.294;2023-05-10T06:32:55;67.30;;;23.67;;
69989;SDS011;57331;52.054;5.294;2023-05-10T06:35:23;68.25;;;23.58;;
69989;SDS011;57331;52.054;5.294;2023-05-10T06:37:50;68.68;;;24.40;;
69989;SDS011;57331;52.054;5.294;2023-05-10T06:40:18;55.85;;;21.73;;
69989;SDS011;57331;52.054;5.294;2023-05-10T06:42:46;56.63;;;21.27;;
69989;SDS011;57331;52.054;5.294;2023-05-10T06:45:14;57.40;;;20.23;;
69989;SDS011;57331;52.054;5.294;2023-05-10T06:47:42;52.00;;;17.88;;
69989;SDS011;57331;52.054;5.294;2023-05-10T06:50:09;47.70;;;18.05;;
69989;SDS011;57331;52.054;5.294;2023-05-10T06:52:37;50.67;;;18.60;;
69989;SDS011;57331;52.054;5.294;2023-05-10T06:55:05;43.30;;;14.80;;
69989;SDS011;57331;52.054;5.294;2023-05-10T06:57:33;32.47;;;11.63;;
69989;SDS011;57331;52.054;5.294;2023-05-10T07:00:00;26.00;;;12.10;;
69989;SDS011;57331;52.054;5.294;2023-05-10T07:02:30;28.67;;;11.48;;
69989;SDS011;57331;52.054;5.294;2023-05-10T07:04:57;31.38;;;12.40;;
69989;SDS011;57331;52.054;5.294;2023-05-10T07:07:40;22.13;;;10.43;;
69989;SDS011;57331;52.054;5.294;2023-05-10T07:10:07;26.30;;;9.73;;
69989;SDS011;57331;52.054;5.294;2023-05-10T07:12:34;20.35;;;9.30;;
69989;SDS011;57331;52.054;5.294;2023-05-10T07:15:02;23.50;;;9.40;;
69989;SDS011;57331;52.054;5.294;2023-05-10T07:17:29;22.05;;;9.40;;
69989;SDS011;57331;52.054;5.294;2023-05-10T07:19:57;24.17;;;10.15;;
69989;SDS011;57331;52.054;5.294;2023-05-10T07:22:24;21.07;;;9.43;;
69989;SDS011;57331;52.054;5.294;2023-05-10T07:24:51;20.48;;;8.95;;
69989;SDS011;57331;52.054;5.294;2023-05-10T07:27:18;19.08;;;9.35;;
69989;SDS011;57331;52.054;5.294;2023-05-10T07:29:45;22.00;;;9.27;;
69989;SDS011;57331;52.054;5.294;2023-05-10T07:32:13;20.30;;;8.48;;
69989;SDS011;57331;52.054;5.294;2023-05-10T07:34:40;16.93;;;7.27;;
69989;SDS011;57331;52.054;5.294;2023-05-10T07:37:07;14.02;;;6.20;;
69989;SDS011;57331;52.054;5.294;2023-05-10T07:39:34;17.02;;;7.00;;
69989;SDS011;57331;52.054;5.294;2023-05-10T07:42:01;15.02;;;6.97;;
69989;SDS011;57331;52.054;5.294;2023-05-10T07:44:29;18.10;;;7.97;;
69989;SDS011;57331;52.054;5.294;2023-05-10T07:46:56;14.80;;;6.73;;
69989;SDS011;57331;52.054;5.294;2023-05-10T07:49:23;16.67;;;7.80;;
69989;SDS011;57331;52.054;5.294;2023-05-10T07:51:51;16.90;;;7.22;;
69989;SDS011;57331;52.054;5.294;2023-05-10T07:54:18;15.40;;;7.47;;
69989;SDS011;57331;52.054;5.294;2023-05-10T07:56:46;14.43;;;7.07;;
69989;SDS011;57331;52.054;5.294;2023-05-10T07:59:16;17.23;;;6.80;;
69989;SDS011;57331;52.054;5.294;2023-05-10T08:01:44;16.05;;;7.53;;
69989;SDS011;57331;52.054;5.294;2023-05-10T08:04:11;17.58;;;7.75;;
69989;SDS011;57331;52.054;5.294;2023-05-10T08:06:38;16.25;;;7.30;;
69989;SDS011;57331;52.054;5.294;2023-05-10T08:09:06;15.85;;;7.57;;
69989;SDS011;57331;52.054;5.294;2023-05-10T08:11:32;16.77;;;7.53;;
69989;SDS011;57331;52.054;5.294;2023-05-10T08:14:00;16.98;;;7.82;;
69989;SDS011;57331;52.054;5.294;2023-05-10T08:16:27;22.65;;;10.23;;
69989;SDS011;57331;52.054;5.294;2023-05-10T08:18:55;19.73;;;8.73;;
69989;SDS011;57331;52.054;5.294;2023-05-10T08:21:22;19.42;;;8.15;;
69989;SDS011;57331;52.054;5.294;2023-05-10T08:23:49;15.90;;;7.60;;
69989;SDS011;57331;52.054;5.294;2023-05-10T08:26:16;23.00;;;9.52;;
69989;SDS011;57331;52.054;5.294;2023-05-10T08:28:43;21.42;;;10.32;;
69989;SDS011;57331;52.054;5.294;2023-05-10T08:31:10;16.92;;;8.27;;
69989;SDS011;57331;52.054;5.294;2023-05-10T08:33:38;15.75;;;8.57;;
69989;SDS011;57331;52.054;5.294;2023-05-10T08:36:07;19.80;;;8.60;;
69989;SDS011;57331;52.054;5.294;2023-05-10T08:38:34;16.90;;;8.30;;
69989;SDS011;57331;52.054;5.294;2023-05-10T08:41:01;18.92;;;8.23;;
69989;SDS011;57331;52.054;5.294;2023-05-10T08:43:29;23.63;;;10.63;;
69989;SDS011;57331;52.054;5.294;2023-05-10T08:45:59;16.80;;;8.65;;
69989;SDS011;57331;52.054;5.294;2023-05-10T08:48:27;19.73;;;8.00;;
69989;SDS011;57331;52.054;5.294;2023-05-10T08:50:56;17.15;;;8.90;;
69989;SDS011;57331;52.054;5.294;2023-05-10T08:53:27;18.40;;;8.30;;
69989;SDS011;57331;52.054;5.294;2023-05-10T08:55:57;19.10;;;8.50;;
69989;SDS011;57331;52.054;5.294;2023-05-10T08:58:24;19.83;;;9.10;;
69989;SDS011;57331;52.054;5.294;2023-05-10T09:00:52;19.20;;;8.73;;
69989;SDS011;57331;52.054;5.294;2023-05-10T09:03:19;17.15;;;8.43;;
69989;SDS011;57331;52.054;5.294;2023-05-10T09:05:47;16.83;;;7.80;;
69989;SDS011;57331;52.054;5.294;2023-05-10T09:08:15;17.20;;;7.97;;
69989;SDS011;57331;52.054;5.294;2023-05-10T09:10:43;16.90;;;8.05;;
69989;SDS011;57331;52.054;5.294;2023-05-10T09:13:14;16.37;;;8.40;;
69989;SDS011;57331;52.054;5.294;2023-05-10T09:15:43;18.65;;;8.48;;
69989;SDS011;57331;52.054;5.294;2023-05-10T09:18:11;17.75;;;8.65;;
69989;SDS011;57331;52.054;5.294;2023-05-10T09:20:38;17.02;;;8.15;;
69989;SDS011;57331;52.054;5.294;2023-05-10T09:23:06;15.40;;;7.60;;
69989;SDS011;57331;52.054;5.294;2023-05-10T09:25:33;19.97;;;8.43;;
69989;SDS011;57331;52.054;5.294;2023-05-10T09:28:01;19.27;;;8.18;;
69989;SDS011;57331;52.054;5.294;2023-05-10T09:30:29;22.10;;;9.13;;
69989;SDS011;57331;52.054;5.294;2023-05-10T09:32:57;17.67;;;8.60;;
69989;SDS011;57331;52.054;5.294;2023-05-10T09:35:27;15.95;;;7.97;;
69989;SDS011;57331;52.054;5.294;2023-05-10T09:37:57;21.43;;;8.37;;
69989;SDS011;57331;52.054;5.294;2023-05-10T09:40:26;32.58;;;8.43;;
69989;SDS011;57331;52.054;5.294;2023-05-10T09:42:58;16.63;;;7.35;;
69989;SDS011;57331;52.054;5.294;2023-05-10T09:45:43;34.17;;;10.45;;
69989;SDS011;57331;52.054;5.294;2023-05-10T09:48:10;21.63;;;9.05;;
69989;SDS011;57331;52.054;5.294;2023-05-10T09:50:37;18.30;;;7.60;;
69989;SDS011;57331;52.054;5.294;2023-05-10T09:53:05;19.02;;;7.95;;
69989;SDS011;57331;52.054;5.294;2023-05-10T09:58:07;18.20;;;7.28;;
69989;SDS011;57331;52.054;5.294;2023-05-10T10:00:37;16.75;;;6.95;;
69989;SDS011;57331;52.054;5.294;2023-05-10T10:03:12;14.67;;;7.23;;
69989;SDS011;57331;52.054;5.294;2023-05-10T10:05:41;15.73;;;7.28;;
69989;SDS011;57331;52.054;5.294;2023-05-10T10:08:10;20.40;;;9.15;;
69989;SDS011;57331;52.054;5.294;2023-05-10T10:10:38;18.10;;;8.93;;
69989;SDS011;57331;52.054;5.294;2023-05-10T10:13:06;14.35;;;7.13;;
69989;SDS011;57331;52.054;5.294;2023-05-10T10:15:34;15.03;;;6.77;;
69989;SDS011;57331;52.054;5.294;2023-05-10T10:18:02;13.05;;;6.65;;
69989;SDS011;57331;52.054;5.294;2023-05-10T10:20:33;20.00;;;8.82;;
69989;SDS011;57331;52.054;5.294;2023-05-10T10:23:00;18.95;;;8.40;;
69989;SDS011;57331;52.054;5.294;2023-05-10T10:25:27;21.42;;;9.93;;
69989;SDS011;57331;52.054;5.294;2023-05-10T10:27:58;14.77;;;6.67;;
69989;SDS011;57331;52.054;5.294;2023-05-10T10:36:00;12.43;;;6.47;;
69989;SDS011;57331;52.054;5.294;2023-05-10T10:41:27;9.23;;;5.13;;
69989;SDS011;57331;52.054;5.294;2023-05-10T10:47:00;12.25;;;5.43;;
69989;SDS011;57331;52.054;5.294;2023-05-10T10:52:33;11.35;;;5.35;;
69989;SDS011;57331;52.054;5.294;2023-05-10T10:57:33;12.70;;;5.20;;
69989;SDS011;57331;52.054;5.294;2023-05-10T11:07:54;11.83;;;5.00;;
69989;SDS011;57331;52.054;5.294;2023-05-10T11:10:23;11.25;;;4.82;;
69989;SDS011;57331;52.054;5.294;2023-05-10T11:13:01;9.68;;;4.82;;
69989;SDS011;57331;52.054;5.294;2023-05-10T11:15:34;10.95;;;4.80;;
69989;SDS011;57331;52.054;5.294;2023-05-10T11:18:18;10.23;;;4.88;;
69989;SDS011;57331;52.054;5.294;2023-05-10T11:20:50;9.53;;;4.90;;
69989;SDS011;57331;52.054;5.294;2023-05-10T11:23:18;9.82;;;5.07;;
69989;SDS011;57331;52.054;5.294;2023-05-10T11:25:47;9.52;;;4.88;;
69989;SDS011;57331;52.054;5.294;2023-05-10T11:28:18;13.30;;;5.03;;
69989;SDS011;57331;52.054;5.294;2023-05-10T11:30:46;9.38;;;4.80;;
69989;SDS011;57331;52.054;5.294;2023-05-10T11:33:17;11.37;;;5.10;;
69989;SDS011;57331;52.054;5.294;2023-05-10T11:35:45;12.80;;;5.93;;
69989;SDS011;57331;52.054;5.294;2023-05-10T11:38:13;10.95;;;5.80;;
69989;SDS011;57331;52.054;5.294;2023-05-10T11:40:40;9.90;;;4.90;;
69989;SDS011;57331;52.054;5.294;2023-05-10T11:43:08;12.63;;;5.43;;
69989;SDS011;57331;52.054;5.294;2023-05-10T11:45:36;11.80;;;5.50;;
69989;SDS011;57331;52.054;5.294;2023-05-10T11:48:04;10.43;;;4.70;;
69989;SDS011;57331;52.054;5.294;2023-05-10T11:50:31;10.43;;;4.53;;
69989;SDS011;57331;52.054;5.294;2023-05-10T11:52:59;14.80;;;6.18;;
69989;SDS011;57331;52.054;5.294;2023-05-10T11:55:26;8.38;;;4.13;;
69989;SDS011;57331;52.054;5.294;2023-05-10T11:57:54;11.57;;;4.87;;
69989;SDS011;57331;52.054;5.294;2023-05-10T12:00:21;8.27;;;3.85;;
69989;SDS011;57331;52.054;5.294;2023-05-10T12:02:48;12.32;;;3.90;;
69989;SDS011;57331;52.054;5.294;2023-05-10T12:05:16;8.65;;;4.40;;
69989;SDS011;57331;52.054;5.294;2023-05-10T12:07:44;8.57;;;4.28;;
69989;SDS011;57331;52.054;5.294;2023-05-10T12:10:12;8.83;;;4.47;;
69989;SDS011;57331;52.054;5.294;2023-05-10T12:12:45;11.20;;;5.40;;
69989;SDS011;57331;52.054;5.294;2023-05-10T12:15:18;10.07;;;4.50;;
69989;SDS011;57331;52.054;5.294;2023-05-10T12:17:46;13.85;;;7.07;;
69989;SDS011;57331;52.054;5.294;2023-05-10T12:22:46;10.47;;;4.33;;
69989;SDS011;57331;52.054;5.294;2023-05-10T12:25:15;8.65;;;4.70;;
69989;SDS011;57331;52.054;5.294;2023-05-10T12:27:50;11.60;;;4.65;;
69989;SDS011;57331;52.054;5.294;2023-05-10T12:30:18;8.63;;;5.28;;
69989;SDS011;57331;52.054;5.294;2023-05-10T12:32:47;8.98;;;5.15;;
69989;SDS011;57331;52.054;5.294;2023-05-10T12:35:14;10.00;;;5.07;;
69989;SDS011;57331;52.054;5.294;2023-05-10T12:37:43;10.95;;;5.75;;
69989;SDS011;57331;52.054;5.294;2023-05-10T12:40:10;8.48;;;5.15;;
69989;SDS011;57331;52.054;5.294;2023-05-10T12:42:38;10.15;;;5.20;;
69989;SDS011;57331;52.054;5.294;2023-05-10T12:45:06;9.80;;;6.00;;
69989;SDS011;57331;52.054;5.294;2023-05-10T12:47:34;10.23;;;5.50;;
69989;SDS011;57331;52.054;5.294;2023-05-10T12:50:02;10.02;;;6.00;;
69989;SDS011;57331;52.054;5.294;2023-05-10T12:52:30;10.40;;;6.78;;
69989;SDS011;57331;52.054;5.294;2023-05-10T12:54:58;11.93;;;6.78;;
69989;SDS011;57331;52.054;5.294;2023-05-10T12:57:26;10.82;;;6.25;;
69989;SDS011;57331;52.054;5.294;2023-05-10T12:59:54;11.57;;;6.23;;
69989;SDS011;57331;52.054;5.294;2023-05-10T13:02:21;13.02;;;6.28;;
69989;SDS011;57331;52.054;5.294;2023-05-10T13:04:49;13.85;;;7.15;;
69989;SDS011;57331;52.054;5.294;2023-05-10T13:07:16;13.27;;;6.10;;
69989;SDS011;57331;52.054;5.294;2023-05-10T13:09:44;15.07;;;6.10;;
69989;SDS011;57331;52.054;5.294;2023-05-10T13:12:11;11.60;;;5.30;;
69989;SDS011;57331;52.054;5.294;2023-05-10T13:14:38;13.15;;;5.95;;
69989;SDS011;57331;52.054;5.294;2023-05-10T13:17:06;13.88;;;5.60;;
69989;SDS011;57331;52.054;5.294;2023-05-10T13:19:34;16.42;;;5.75;;
69989;SDS011;57331;52.054;5.294;2023-05-10T13:22:02;14.75;;;5.38;;
69989;SDS011;57331;52.054;5.294;2023-05-10T13:24:29;12.17;;;5.37;;
69989;SDS011;57331;52.054;5.294;2023-05-10T13:26:56;23.13;;;8.63;;
69989;SDS011;57331;52.054;5.294;2023-05-10T13:29:23;15.95;;;7.75;;
69989;SDS011;57331;52.054;5.294;2023-05-10T13:31:50;19.23;;;7.28;;
69989;SDS011;57331;52.054;5.294;2023-05-10T13:34:17;16.38;;;7.00;;
69989;SDS011;57331;52.054;5.294;2023-05-10T13:36:47;20.80;;;9.07;;
69989;SDS011;57331;52.054;5.294;2023-05-10T13:39:14;14.98;;;6.63;;
69989;SDS011;57331;52.054;5.294;2023-05-10T13:41:41;20.50;;;8.23;;
69989;SDS011;57331;52.054;5.294;2023-05-10T13:44:08;23.50;;;10.00;;
69989;SDS011;57331;52.054;5.294;2023-05-10T13:46:35;21.05;;;9.20;;
69989;SDS011;57331;52.054;5.294;2023-05-10T13:49:04;24.63;;;11.03;;
69989;SDS011;57331;52.054;5.294;2023-05-10T13:51:31;30.60;;;11.02;;
69989;SDS011;57331;52.054;5.294;2023-05-10T13:53:58;22.45;;;9.20;;
69989;SDS011;57331;52.054;5.294;2023-05-10T13:56:25;22.08;;;9.32;;
69989;SDS011;57331;52.054;5.294;2023-05-10T13:58:53;21.75;;;9.18;;
69989;SDS011;57331;52.054;5.294;2023-05-10T14:01:20;20.80;;;8.97;;
69989;SDS011;57331;52.054;5.294;2023-05-10T14:03:47;19.58;;;8.57;;
69989;SDS011;57331;52.054;5.294;2023-05-10T14:06:15;21.20;;;9.40;;
69989;SDS011;57331;52.054;5.294;2023-05-10T14:08:41;20.52;;;9.25;;
69989;SDS011;57331;52.054;5.294;2023-05-10T14:11:08;34.30;;;15.70;;
69989;SDS011;57331;52.054;5.294;2023-05-10T14:13:36;20.13;;;9.73;;
69989;SDS011;57331;52.054;5.294;2023-05-10T14:16:03;22.13;;;8.90;;
69989;SDS011;57331;52.054;5.294;2023-05-10T14:18:30;23.25;;;10.57;;
69989;SDS011;57331;52.054;5.294;2023-05-10T14:20:58;22.65;;;9.48;;
69989;SDS011;57331;52.054;5.294;2023-05-10T14:23:25;19.60;;;9.43;;
69989;SDS011;57331;52.054;5.294;2023-05-10T14:25:52;19.97;;;8.40;;
69989;SDS011;57331;52.054;5.294;2023-05-10T14:28:19;21.77;;;9.57;;
69989;SDS011;57331;52.054;5.294;2023-05-10T14:30:48;22.38;;;9.50;;
69989;SDS011;57331;52.054;5.294;2023-05-10T14:33:16;20.60;;;9.10;;
69989;SDS011;57331;52.054;5.294;2023-05-10T14:35:44;23.77;;;9.38;;
69989;SDS011;57331;52.054;5.294;2023-05-10T14:38:13;20.10;;;9.17;;
69989;SDS011;57331;52.054;5.294;2023-05-10T14:40:40;21.70;;;10.05;;
69989;SDS011;57331;52.054;5.294;2023-05-10T14:43:08;20.73;;;9.50;;
69989;SDS011;57331;52.054;5.294;2023-05-10T14:45:35;18.98;;;9.02;;
69989;SDS011;57331;52.054;5.294;2023-05-10T14:48:02;19.95;;;8.80;;
69989;SDS011;57331;52.054;5.294;2023-05-10T14:50:31;19.00;;;9.40;;
69989;SDS011;57331;52.054;5.294;2023-05-10T14:53:02;17.92;;;9.10;;
69989;SDS011;57331;52.054;5.294;2023-05-10T14:55:30;19.60;;;9.65;;
69989;SDS011;57331;52.054;5.294;2023-05-10T14:57:57;17.70;;;7.43;;
69989;SDS011;57331;52.054;5.294;2023-05-10T15:00:25;15.93;;;7.50;;
69989;SDS011;57331;52.054;5.294;2023-05-10T15:02:52;15.40;;;7.27;;
69989;SDS011;57331;52.054;5.294;2023-05-10T15:05:20;14.48;;;7.00;;
69989;SDS011;57331;52.054;5.294;2023-05-10T15:07:48;14.95;;;7.28;;
69989;SDS011;57331;52.054;5.294;2023-05-10T15:10:16;15.07;;;7.40;;
69989;SDS011;57331;52.054;5.294;2023-05-10T15:12:43;15.52;;;7.43;;
69989;SDS011;57331;52.054;5.294;2023-05-10T15:15:11;16.73;;;7.57;;
69989;SDS011;57331;52.054;5.294;2023-05-10T15:17:38;15.65;;;6.75;;
69989;SDS011;57331;52.054;5.294;2023-05-10T15:20:05;15.30;;;6.70;;
69989;SDS011;57331;52.054;5.294;2023-05-10T15:22:33;15.45;;;7.70;;
69989;SDS011;57331;52.054;5.294;2023-05-10T15:25:00;15.93;;;7.25;;